ZTL Weather Bulletin
Prepared: 2/10/2016 7:30 PM by: CW valid for 9 hours
FOR ATC PLANNING PURPOSES
High pressure will continue across ZTL this evening with mostly VFR clouds across most of the airspace. Surface winds will be west to northwest 5-10kts. Flight Hazards: LGT-MOD turbulence at all altitudes in eastern ZTL and LGT-MOD rime icing 030-150 over northern ZTL. Altimeters are at or above 29.92ins over all of the airspace. Ceilings below 050 are expected in areas 1 and 7 by morning.

Restricted Area Convection: R2102...None. R3002...None. R3004...None.
FTUS80 KATL 110524
KATL 110521Z 1106/1212 30006KT P6SM BKN060
     FM110900 28004KT P6SM SCT070
     FM111500 26004KT P6SM SCT050
     FM120000 32005KT P6SM BKN100
     FM120400 05004KT P6SM BKN040
Remark: FROST AND RELATED DE-ICING OPERATIONS POSSIBLE BETWEEN 02Z TO 14Z.
FTUS80 KCLT 110536
KCLT 110534Z 1106/1206 28003KT P6SM FEW180 SCT250
     FM111600 26006KT P6SM FEW250
     FM112300 32005KT P6SM SCT150
     FM120300 02004KT P6SM FEW045 BKN150

Remark: FROST AND RELATED DE-ICING OPERATIONS POSSIBLE BETWEEN 02Z TO 14Z.
12-18 Hour Forecast Map
Weather Map
Convective Gate Forecast
Convective Gate Forecast
Icing Gate Forecast Icing Gate Forecast

ATL products

TDA
TRACON BRF

Convection Gate FCST

Vertical Wind Profile (RAP)

Icing Gate FCST
Atlanta Observations
 

CLT products

TDA

TRACON BRF

Convection Gate FCST

Vertical Wind Profile (RAP)

Icing Gate FCST
Charlotte Observations



USA.gov is the U.S. government's official web portal to all federal, state and local government web resources and services.